Time;durP1;ratioP1;P1;durP2;ratioP2;P2;SDS_P1;SDS_P2;PMS_P1;PMS_P2;Temp;Humidity;BMP_temperature;BMP_pressure;BME280_temperature;BME280_humidity;BME280_pressure;Samples;Min_cycle;Max_cycle;Signal;HPM_P1;HPM_P2
2023/05/01 00:01:16;;;;;;;;;;;;;;;;;;5038662;28;19933;-82
2023/05/01 00:03:44;;;;;;;;;;;;;;;;;;5041095;28;19929;-82
2023/05/01 00:06:11;;;;;;;;;;;;;;;;;;5073387;28;19991;-83
2023/05/01 00:08:38;;;;;;;;;;;;;;;;;;5074230;28;20035;-80
2023/05/01 00:11:08;;;;;;;;;;;;;;;;;;5074850;28;19925;-82
2023/05/01 00:13:35;;;;;;;;;;;;;;;;;;5058568;28;19931;-83
2023/05/01 00:16:07;;;;;;;;;;;10.20;99.90;;;;;;5043114;28;19920;-81
2023/05/01 00:18:34;;;;;;;;;;;10.10;99.90;;;;;;5070858;28;19929;-82
2023/05/01 00:21:01;;;;;;;;;;;10.00;99.90;;;;;;5036662;28;19925;-81
2023/05/01 00:23:28;;;;;;;;;;;;;;;;;;5040201;28;19925;-81
2023/05/01 00:25:56;;;;;;;;;;;;;;;;;;5037167;28;20357;-81
2023/05/01 00:28:23;;;;;;;;;;;;;;;;;;5050512;28;19929;-81
2023/05/01 00:30:50;;;;;;;;;;;9.70;99.90;;;;;;5037394;28;19966;-81
2023/05/01 00:33:18;;;;;;;;;;;9.70;99.90;;;;;;5035150;28;20275;-81
2023/05/01 00:35:45;;;;;;;;;;;9.60;99.90;;;;;;5049762;28;19935;-81
2023/05/01 00:38:12;;;;;;;;;;;9.60;99.90;;;;;;5069683;28;20013;-81
2023/05/01 00:40:43;;;;;;;;;;;9.70;99.90;;;;;;5046529;28;19983;-81
2023/05/01 00:43:10;;;;;;;;;;;;;;;;;;5045761;28;19935;-81
2023/05/01 00:45:37;;;;;;;;;;;;;;;;;;5069349;28;19983;-81
2023/05/01 00:48:05;;;;;;;;;;;;;;;;;;5052058;28;19933;-81
2023/05/01 00:50:32;;;;;;;;;;;;;;;;;;5046167;28;19949;-81
2023/05/01 00:53:00;;;;;;;;;;;9.20;99.90;;;;;;5046256;28;20672;-80
2023/05/01 00:55:28;;;;;;;;;;;9.10;99.90;;;;;;5045087;28;19933;-80
2023/05/01 00:57:56;;;;;;;;;;;;;;;;;;5052052;28;20006;-81
2023/05/01 01:00:28;;;;;;;;;;;;;;;;;;5067406;28;19933;-80
2023/05/01 01:02:55;;;;;;;;;;;;;;;;;;5045779;28;20299;-82
2023/05/01 01:05:22;;;;;;;;;;;;;;;;;;5039171;28;20358;-79
2023/05/01 01:07:50;;;;;;;;;;;;;;;;;;5071259;28;19929;-79
2023/05/01 01:10:18;;;;;;;;;;;;;;;;;;5038443;28;19932;-79
2023/05/01 01:12:45;;;;;;;;;;;;;;;;;;5069484;28;20011;-78
2023/05/01 01:15:13;;;;;;;;;;;;;;;;;;5067548;28;19935;-79
2023/05/01 01:17:40;;;;;;;;;;;;;;;;;;5050967;28;19933;-79
2023/05/01 01:20:07;;;;;;;;;;;;;;;;;;5045903;28;19936;-80
2023/05/01 01:22:34;;;;;;;;;;;;;;;;;;5054010;28;20074;-80
2023/05/01 01:25:05;;;;;;;;;;;;;;;;;;5036439;28;20433;-80
2023/05/01 01:27:33;;;;;;;;;;;;;;;;;;5035758;28;19966;-81
2023/05/01 01:30:01;;;;;;;;;;;;;;;;;;5034145;28;19928;-81
2023/05/01 01:32:30;;;;;;;;;;;;;;;;;;5051533;28;19941;-79
2023/05/01 01:34:57;;;;;;;;;;;;;;;;;;5033766;28;19944;-80
2023/05/01 01:37:24;;;;;;;;;;;;;;;;;;5029447;28;19929;-80
2023/05/01 01:39:55;;;;;;;;;;;9.40;99.90;;;;;;5054970;28;20430;-80
2023/05/01 01:42:23;;;;;;;;;;;;;;;;;;5037884;28;20633;-79
2023/05/01 01:44:52;;;;;;;;;;;9.50;99.90;;;;;;5037183;28;19929;-79
2023/05/01 01:47:20;;;;;;;;;;;;;;;;;;5033089;28;20075;-81
2023/05/01 01:49:48;;;;;;;;;;;;;;;;;;5056157;28;19933;-79
2023/05/01 01:52:15;;;;;;;;;;;;;;;;;;5033670;28;19976;-79
2023/05/01 01:54:43;;;;;;;;;;;;;;;;;;5043098;28;20039;-79
2023/05/01 01:57:10;;;;;;;;;;;;;;;;;;5037360;28;20031;-79
2023/05/01 01:59:37;;;;;;;;;;;;;;;;;;5070342;28;19929;-79
2023/05/01 02:02:04;;;;;;;;;;;;;;;;;;5037229;28;19932;-79
2023/05/01 02:04:32;;;;;;;;;;;;;;;;;;5070450;28;19924;-79
2023/05/01 02:06:59;;;;;;;;;;;;;;;;;;5036180;28;19925;-78
2023/05/01 02:09:26;;;;;;;;;;;;;;;;;;5037073;28;20011;-79
2023/05/01 02:11:53;;;;;;;;;;;;;;;;;;5043067;28;19955;-78
2023/05/01 02:14:25;;;;;;;;;;;9.70;99.90;;;;;;5069118;28;19932;-78
2023/05/01 02:16:52;;;;;;;;;;;;;;;;;;5067507;28;20301;-79
2023/05/01 02:19:20;;;;;;;;;;;9.70;99.90;;;;;;5050111;28;20567;-78
2023/05/01 02:21:47;;;;;;;;;;;;;;;;;;5031965;28;20423;-79
2023/05/01 02:24:14;;;;;;;;;;;;;;;;;;5066195;28;19925;-78
2023/05/01 02:26:42;;;;;;;;;;;;;;;;;;5065256;28;19982;-78
2023/05/01 02:29:09;;;;;;;;;;;;;;;;;;5066715;28;20070;-78
2023/05/01 02:31:37;;;;;;;;;;;;;;;;;;5051704;28;19929;-78
2023/05/01 02:34:04;;;;;;;;;;;;;;;;;;5038617;28;20411;-78
2023/05/01 02:36:32;;;;;;;;;;;;;;;;;;5073488;28;19936;-78
2023/05/01 02:38:59;;;;;;;;;;;;;;;;;;5070050;28;19996;-79
2023/05/01 02:41:27;;;;;;;;;;;;;;;;;;5071773;28;19932;-78
2023/05/01 02:43:54;;;;;;;;;;;;;;;;;;5032444;28;20019;-79
2023/05/01 02:46:21;;;;;;;;;;;;;;;;;;5044622;28;19939;-78
2023/05/01 02:48:50;;;;;;;;;;;9.40;99.90;;;;;;5070796;28;19931;-79
2023/05/01 02:51:18;;;;;;;;;;;;;;;;;;5038460;28;19987;-79
2023/05/01 02:53:45;;;;;;;;;;;;;;;;;;5071798;28;19925;-79
2023/05/01 02:56:20;;;;;;;;;;;;;;;;;;5074199;28;20022;-79
2023/05/01 02:58:47;;;;;;;;;;;;;;;;;;5071276;28;20036;-80
2023/05/01 03:01:15;;;;;;;;;;;;;;;;;;5036498;28;20405;-79
2023/05/01 03:03:47;;;;;;;;;;;9.20;99.90;;;;;;5038379;28;20400;-79
2023/05/01 03:06:16;;;;;;;;;;;;;;;;;;5046651;28;19967;-80
2023/05/01 03:11:53;;;;;;;;;;;;;;;;;;5059888;28;19928;-78
2023/05/01 03:14:22;;;;;;;;;;;9.00;99.90;;;;;;5057409;28;19925;-79
2023/05/01 03:16:49;;;;;;;;;;;;;;;;;;5061329;28;20301;-79
2023/05/01 03:19:16;;;;;;;;;;;;;;;;;;5042346;28;20371;-81
2023/05/01 03:21:43;;;;;;;;;;;;;;;;;;5043146;28;19936;-81
2023/05/01 03:24:11;;;;;;;;;;;;;;;;;;5042108;28;19913;-82
2023/05/01 03:26:39;;;;;;;;;;;;;;;;;;5077899;28;20403;-82
2023/05/01 03:29:06;;;;;;;;;;;;;;;;;;5038703;28;20296;-81
2023/05/01 03:31:34;;;;;;;;;;;;;;;;;;5040708;28;19948;-82
2023/05/01 03:34:01;;;;;;;;;;;;;;;;;;5072985;28;19929;-81
2023/05/01 03:36:29;;;;;;;;;;;;;;;;;;5041949;28;19932;-81
2023/05/01 03:38:56;;;;;;;;;;;;;;;;;;5072787;28;19979;-81
2023/05/01 03:41:42;;;;;;;;;;;;;;;;;;5056130;28;19967;-81
2023/05/01 03:44:30;;;;;;;;;;;;;;;;;;5038109;28;20380;-81
2023/05/01 03:46:57;;;;;;;;;;;;;;;;;;5069688;28;19924;-80
2023/05/01 03:49:28;;;;;;;;;;;;;;;;;;5037068;28;20467;-81
2023/05/01 03:51:56;;;;;;;;;;;;;;;;;;5037562;28;19990;-81
2023/05/01 03:54:24;;;;;;;;;;;;;;;;;;5070619;28;20384;-80
2023/05/01 03:57:13;;;;;;;;;;;;;;;;;;5054294;28;19925;-80
2023/05/01 03:59:42;;;;;;;;;;;;;;;;;;5068948;28;19967;-82
2023/05/01 04:02:10;;;;;;;;;;;;;;;;;;5069990;28;20039;-80
2023/05/01 04:04:38;;;;;;;;;;;;;;;;;;5035685;28;20018;-80
2023/05/01 04:07:06;;;;;;;;;;;;;;;;;;5069552;28;20530;-80
2023/05/01 04:09:33;;;;;;;;;;;;;;;;;;5068284;28;19963;-79
2023/05/01 04:12:01;;;;;;;;;;;;;;;;;;5035103;28;20994;-79
2023/05/01 04:14:28;;;;;;;;;;;;;;;;;;5068504;28;20843;-82
2023/05/01 04:16:57;;;;;;;;;;;8.50;99.90;;;;;;5035616;28;20380;-82
2023/05/01 04:19:25;;;;;;;;;;;;;;;;;;5053387;28;19929;-81
2023/05/01 04:21:57;;;;;;;;;;;;;;;;;;5055774;28;19928;-81
2023/05/01 04:24:24;;;;;;;;;;;;;;;;;;5073522;28;20147;-82
2023/05/01 04:26:51;;;;;;;;;;;;;;;;;;5063675;28;20391;-82
2023/05/01 04:29:18;;;;;;;;;;;;;;;;;;5051485;28;20019;-79
2023/05/01 04:31:45;;;;;;;;;;;8.40;99.90;;;;;;5076647;28;19925;-81
2023/05/01 04:34:13;;;;;;;;;;;;;;;;;;5060076;28;19974;-82
2023/05/01 04:36:41;;;;;;;;;;;8.40;99.90;;;;;;5060635;28;19929;-79
2023/05/01 04:39:09;;;;;;;;;;;;;;;;;;5060999;28;19929;-81
2023/05/01 04:41:37;;;;;;;;;;;;;;;;;;5043025;28;19928;-81
2023/05/01 04:44:05;;;;;;;;;;;;;;;;;;5073855;28;19928;-80
2023/05/01 04:46:33;;;;;;;;;;;;;;;;;;5049687;28;20518;-79
2023/05/01 04:49:02;;;;;;;;;;;;;;;;;;5053386;28;19955;-80
2023/05/01 04:51:30;;;;;;;;;;;;;;;;;;5074268;28;20008;-81
2023/05/01 04:53:57;;;;;;;;;;;;;;;;;;5073620;28;19940;-81
2023/05/01 04:56:26;;;;;;;;;;;;;;;;;;5043250;28;19924;-81
2023/05/01 04:58:58;;;;;;;;;;;;;;;;;;5056780;28;20284;-80
2023/05/01 05:01:27;;;;;;;;;;;;;;;;;;5071799;28;19925;-80
2023/05/01 05:03:55;;;;;;;;;;;9.70;99.90;;;;;;5072346;28;19931;-80
2023/05/01 05:06:23;;;;;;;;;;;;;;;;;;5057694;28;19929;-80
2023/05/01 05:08:51;;;;;;;;;;;;;;;;;;5052311;28;20354;-78
2023/05/01 05:11:18;;;;;;;;;;;;;;;;;;5036119;28;19925;-79
2023/05/01 05:14:08;;;;;;;;;;;;;;;;;;5042849;28;19929;-79
2023/05/01 05:16:35;;;;;;;;;;;;;;;;;;5068346;28;19975;-80
2023/05/01 05:19:03;;;;;;;;;;;;;;;;;;5069895;28;19932;-79
2023/05/01 05:21:35;;;;;;;;;;;;;;;;;;5076586;28;19924;-79
2023/05/01 05:24:03;;;;;;;;;;;;;;;;;;5089454;28;20236;-78
2023/05/01 05:26:30;;;;;;;;;;;;;;;;;;5074610;28;19933;-79
2023/05/01 05:29:02;;;;;;;;;;;;;;;;;;5074819;28;19929;-80
2023/05/01 05:31:30;;;;;;;;;;;;;;;;;;5062058;28;19933;-79
2023/05/01 05:33:57;;;;;;;;;;;;;;;;;;5056821;28;19924;-80
2023/05/01 05:36:26;;;;;;;;;;;;;;;;;;5058142;28;20442;-80
2023/05/01 05:38:54;;;;;;;;;;;;;;;;;;5053065;28;19924;-81
2023/05/01 05:41:21;;;;;;;;;;;;;;;;;;5068591;28;19928;-80
2023/05/01 05:43:52;;;;;;;;;;;;;;;;;;5071441;28;20023;-80
2023/05/01 05:46:20;;;;;;;;;;;;;;;;;;5045513;28;19979;-79
2023/05/01 05:48:49;;;;;;;;;;;13.90;99.90;;;;;;5049149;28;19932;-81
2023/05/01 05:51:18;;;;;;;;;;;;;;;;;;5037690;28;19925;-81
2023/05/01 05:53:45;;;;;;;;;;;14.50;99.90;;;;;;5047552;28;19956;-81
2023/05/01 05:56:16;;;;;;;;;;;;;;;;;;5048950;28;19929;-80
2023/05/01 05:58:45;;;;;;;;;;;;;;;;;;5090892;28;20015;-81
2023/05/01 06:01:13;;;;;;;;;;;;;;;;;;5063708;28;19929;-80
2023/05/01 06:03:41;;;;;;;;;;;15.90;99.90;;;;;;5073328;28;19928;-81
2023/05/01 06:06:09;;;;;;;;;;;;;;;;;;5064834;28;19951;-81
2023/05/01 06:08:37;;;;;;;;;;;;;;;;;;5037406;28;19987;-80
2023/05/01 06:11:06;;;;;;;;;;;;;;;;;;5067111;28;19979;-81
2023/05/01 06:13:33;;;;;;;;;;;;;;;;;;5048741;28;19948;-81
2023/05/01 06:16:02;;;;;;;;;;;;;;;;;;5083681;28;21393;-81
2023/05/01 06:18:31;;;;;;;;;;;16.20;99.90;;;;;;5047588;28;19935;-80
2023/05/01 06:20:58;;;;;;;;;;;;;;;;;;5067777;28;20047;-81
2023/05/01 06:23:26;;;;;;;;;;;16.40;99.90;;;;;;5050890;28;19933;-81
2023/05/01 06:26:12;;;;;;;;;;;16.50;99.90;;;;;;5046137;28;19940;-82
2023/05/01 06:28:39;;;;;;;;;;;;;;;;;;5061508;28;20309;-80
2023/05/01 06:31:07;;;;;;;;;;;;;;;;;;5058178;28;19928;-80
2023/05/01 06:33:38;;;;;;;;;;;;;;;;;;5021544;28;19947;-80
2023/05/01 06:36:19;;;;;;;;;;;;;;;;;;5023031;28;20330;-79
2023/05/01 06:38:48;;;;;;;;;;;17.60;99.90;;;;;;5039552;28;19948;-79
2023/05/01 06:41:16;;;;;;;;;;;;;;;;;;5039201;28;19933;-79
2023/05/01 06:43:43;;;;;;;;;;;;;;;;;;5013171;28;19929;-79
2023/05/01 06:46:11;;;;;;;;;;;18.20;99.90;;;;;;5020058;28;19940;-79
2023/05/01 06:48:47;;;;;;;;;;;;;;;;;;5042154;28;19932;-80
2023/05/01 06:51:15;;;;;;;;;;;;;;;;;;5059548;28;19959;-80
2023/05/01 06:53:43;;;;;;;;;;;;;;;;;;5043532;28;19999;-81
2023/05/01 06:56:10;;;;;;;;;;;;;;;;;;5043585;28;20482;-80
2023/05/01 06:58:38;;;;;;;;;;;19.40;99.90;;;;;;5061631;28;19928;-81
2023/05/01 07:01:06;;;;;;;;;;;;;;;;;;5034549;28;19935;-80
2023/05/01 07:03:33;;;;;;;;;;;;;;;;;;5054386;28;19982;-80
2023/05/01 07:06:00;;;;;;;;;;;;;;;;;;5058577;28;19933;-82
2023/05/01 07:08:29;;;;;;;;;;;20.50;99.90;;;;;;5028065;28;19968;-80
2023/05/01 07:10:56;;;;;;;;;;;;;;;;;;5056287;28;19933;-81
2023/05/01 07:13:24;;;;;;;;;;;;;;;;;;5051270;28;19932;-81
2023/05/01 07:15:52;;;;;;;;;;;;;;;;;;5034145;28;20391;-81
2023/05/01 07:18:19;;;;;;;;;;;;;;;;;;5051710;28;20032;-82
2023/05/01 07:20:48;;;;;;;;;;;;;;;;;;5033960;28;19925;-80
2023/05/01 07:23:16;;;;;;;;;;;;;;;;;;5024323;28;19933;-81
2023/05/01 07:25:44;;;;;;;;;;;;;;;;;;5024667;28;19925;-81
2023/05/01 07:28:12;;;;;;;;;;;20.90;99.90;;;;;;5022507;28;19929;-81
2023/05/01 07:30:39;;;;;;;;;;;;;;;;;;5043253;28;22173;-81
2023/05/01 07:33:06;;;;;;;;;;;;;;;;;;5041511;28;20106;-81
2023/05/01 07:35:34;;;;;;;;;;;;;;;;;;5031869;28;19929;-79
2023/05/01 07:38:03;;;;;;;;;;;;;;;;;;5065317;28;20023;-79
2023/05/01 07:40:32;;;;;;;;;;;20.50;99.90;;;;;;5067418;28;20094;-79
2023/05/01 07:43:00;;;;;;;;;;;;;;;;;;5042451;28;19979;-79
2023/05/01 07:45:27;;;;;;;;;;;;;;;;;;5039189;28;19925;-81
2023/05/01 07:47:55;;;;;;;;;;;;;;;;;;5068853;28;19929;-81
2023/05/01 07:50:27;;;;;;;;;;;20.50;99.90;;;;;;5037623;28;20423;-81
2023/05/01 07:52:56;;;;;;;;;;;20.50;99.90;;;;;;5041916;28;19928;-82
2023/05/01 07:55:23;;;;;;;;;;;;;;;;;;5057857;28;20579;-80
2023/05/01 07:57:54;;;;;;;;;;;;;;;;;;5051340;28;19928;-82
2023/05/01 08:00:23;;;;;;;;;;;20.90;99.90;;;;;;5047488;28;20010;-81
2023/05/01 08:02:51;;;;;;;;;;;;;;;;;;5077945;28;19928;-81
2023/05/01 08:05:18;;;;;;;;;;;21.20;99.90;;;;;;5075519;28;19928;-81
2023/05/01 08:07:46;;;;;;;;;;;;;;;;;;5060356;28;19925;-81
2023/05/01 08:10:15;;;;;;;;;;;21.60;99.90;;;;;;5033836;28;19987;-78
2023/05/01 08:12:42;;;;;;;;;;;21.80;99.90;;;;;;5067843;28;19932;-80
2023/05/01 08:15:09;;;;;;;;;;;;;;;;;;5153029;22;19932;-77
2023/05/01 08:17:36;;;;;;;;;;;22.60;99.90;;;;;;5064648;28;19955;-78
2023/05/01 08:20:03;;;;;;;;;;;;;;;;;;5069084;28;19939;-77
2023/05/01 08:22:30;;;;;;;;;;;;;;;;;;5053516;28;19936;-77
2023/05/01 08:24:58;;;;;;;;;;;;;;;;;;5052944;28;19928;-80
2023/05/01 08:27:25;;;;;;;;;;;;;;;;;;5070989;28;20316;-79
2023/05/01 08:29:53;;;;;;;;;;;24.10;99.90;;;;;;5052072;28;20021;-77
2023/05/01 08:32:20;;;;;;;;;;;;;;;;;;5069563;28;19928;-77
2023/05/01 08:34:47;;;;;;;;;;;24.00;99.90;;;;;;5070192;28;20015;-77
2023/05/01 08:37:14;;;;;;;;;;;;;;;;;;5046995;28;19929;-77
2023/05/01 08:39:41;;;;;;;;;;;;;;;;;;5070046;28;20409;-77
2023/05/01 08:42:08;;;;;;;;;;;;;;;;;;5074099;28;19933;-78
2023/05/01 08:44:36;;;;;;;;;;;;;;;;;;5070993;28;19935;-76
2023/05/01 08:47:03;;;;;;;;;;;;;;;;;;5061599;28;19965;-77
2023/05/01 08:49:30;;;;;;;;;;;;;;;;;;5068367;28;19935;-76
2023/05/01 08:51:57;;;;;;;;;;;;;;;;;;5069615;28;19928;-76
2023/05/01 08:54:24;;;;;;;;;;;;;;;;;;5070472;28;19928;-76
2023/05/01 08:56:51;;;;;;;;;;;;;;;;;;5070718;28;19924;-77
2023/05/01 08:59:19;;;;;;;;;;;;;;;;;;5065661;28;19933;-78
2023/05/01 09:01:47;;;;;;;;;;;27.20;96.30;;;;;;5059750;28;20014;-77
2023/05/01 09:04:16;;;;;;;;;;;27.30;95.50;;;;;;5064183;28;19925;-77
2023/05/01 09:06:43;;;;;;;;;;;;;;;;;;5072605;28;19924;-78
2023/05/01 09:09:11;;;;;;;;;;;;;;;;;;5054569;28;19936;-78
2023/05/01 09:11:38;;;;;;;;;;;;;;;;;;5056696;28;19932;-78
2023/05/01 09:14:07;;;;;;;;;;;;;;;;;;5045334;28;19936;-77
2023/05/01 09:16:35;;;;;;;;;;;;;;;;;;5058879;28;19932;-77
2023/05/01 09:19:04;;;;;;;;;;;27.00;92.80;;;;;;5051721;28;19932;-77
2023/05/01 09:21:31;;;;;;;;;;;;;;;;;;5050499;28;20575;-77
2023/05/01 09:23:58;;;;;;;;;;;;;;;;;;5054786;28;19933;-78
2023/05/01 09:26:26;;;;;;;;;;;;;;;;;;5063353;28;20297;-78
2023/05/01 09:28:56;;;;;;;;;;;26.80;92.60;;;;;;5071362;28;19929;-78
2023/05/01 09:31:27;;;;;;;;;;;26.80;91.60;;;;;;5073957;28;19932;-78
2023/05/01 09:33:54;;;;;;;;;;;;;;;;;;5069018;28;19978;-77
2023/05/01 09:36:21;;;;;;;;;;;;;;;;;;5069247;28;19935;-77
2023/05/01 09:38:48;;;;;;;;;;;;;;;;;;5057147;28;19938;-77
2023/05/01 09:41:17;;;;;;;;;;;27.40;90.30;;;;;;5060420;28;19942;-77
2023/05/01 09:43:49;;;;;;;;;;;27.20;90.40;;;;;;5069645;28;19932;-75
2023/05/01 09:46:16;;;;;;;;;;;;;;;;;;5059184;28;20014;-77
2023/05/01 09:48:51;;;;;;;;;;;26.90;89.10;;;;;;5075765;28;20209;-79
2023/05/01 09:51:18;;;;;;;;;;;;;;;;;;5082678;28;19928;-77
2023/05/01 09:53:45;;;;;;;;;;;26.50;88.40;;;;;;5073695;28;19928;-78
2023/05/01 09:56:13;;;;;;;;;;;;;;;;;;5064817;28;19928;-78
2023/05/01 09:58:40;;;;;;;;;;;;;;;;;;5064489;28;19928;-79
2023/05/01 10:01:07;;;;;;;;;;;;;;;;;;5065023;28;19936;-79
2023/05/01 10:03:34;;;;;;;;;;;;;;;;;;5071277;22;19929;-83
2023/05/01 10:06:03;;;;;;;;;;;26.90;88.40;;;;;;5035720;28;19994;-83
2023/05/01 10:08:31;;;;;;;;;;;;;;;;;;5054952;28;19963;-84
2023/05/01 10:10:59;;;;;;;;;;;;;;;;;;5035852;28;19940;-83
2023/05/01 10:13:26;;;;;;;;;;;;;;;;;;5031403;28;19952;-83
2023/05/01 10:15:53;;;;;;;;;;;;;;;;;;5037544;28;20058;-83
2023/05/01 10:18:22;;;;;;;;;;;;;;;;;;5036521;28;20051;-82
2023/05/01 10:20:50;;;;;;;;;;;;;;;;;;5050675;28;19932;-83
2023/05/01 10:23:19;;;;;;;;;;;26.10;87.70;;;;;;5033295;28;19928;-84
2023/05/01 10:25:47;;;;;;;;;;;26.10;88.00;;;;;;5040380;28;20654;-83
2023/05/01 10:28:15;;;;;;;;;;;;;;;;;;5056776;28;20027;-82
2023/05/01 10:30:42;;;;;;;;;;;;;;;;;;5058455;28;19933;-83
2023/05/01 10:33:12;;;;;;;;;;;26.40;87.10;;;;;;5039323;28;19947;-83
2023/05/01 10:35:39;;;;;;;;;;;;;;;;;;5039896;28;20410;-83
2023/05/01 10:38:07;;;;;;;;;;;;;;;;;;5034183;28;20029;-82
2023/05/01 10:40:34;;;;;;;;;;;;;;;;;;5054294;28;19932;-83
2023/05/01 10:43:01;;;;;;;;;;;;;;;;;;5058289;28;19933;-82
2023/05/01 10:45:33;;;;;;;;;;;26.50;85.80;;;;;;5040730;28;19929;-83
2023/05/01 10:48:00;;;;;;;;;;;;;;;;;;5040724;28;19933;-82
2023/05/01 10:50:27;;;;;;;;;;;;;;;;;;5039714;28;19931;-82
2023/05/01 10:52:55;;;;;;;;;;;;;;;;;;5039774;28;19925;-81
2023/05/01 10:55:45;;;;;;;;;;;25.80;86.80;;;;;;5040426;28;19944;-83
2023/05/01 10:58:13;;;;;;;;;;;25.80;87.60;;;;;;5043119;28;19924;-83
2023/05/01 11:01:05;;;;;;;;;;;25.70;87.40;;;;;;5041680;28;20336;-83
2023/05/01 11:03:45;;;;;;;;;;;;;;;;;;5057887;28;19925;-83
2023/05/01 11:06:13;;;;;;;;;;;25.40;87.30;;;;;;5041679;28;19925;-83
2023/05/01 11:09:09;;;;;;;;;;;25.20;87.60;;;;;;5041692;28;19925;-83
2023/05/01 11:11:56;;;;;;;;;;;;;;;;;;5059847;28;20361;-81
2023/05/01 11:14:26;;;;;;;;;;;;;;;;;;5036468;28;19933;-83
2023/05/01 11:16:54;;;;;;;;;;;25.30;88.70;;;;;;5028511;28;19941;-82
2023/05/01 11:19:22;;;;;;;;;;;;;;;;;;5052043;28;19929;-81
2023/05/01 11:21:49;;;;;;;;;;;25.60;88.10;;;;;;5038097;28;19929;-81
2023/05/01 11:26:46;;;;;;;;;;;;;;;;;;5031110;28;19929;-81
2023/05/01 11:29:13;;;;;;;;;;;24.90;86.30;;;;;;5027728;28;20632;-81
2023/05/01 11:31:40;;;;;;;;;;;;;;;;;;5055100;28;19931;-85
2023/05/01 11:34:07;;;;;;;;;;;;;;;;;;5038430;28;19967;-82
2023/05/01 11:36:35;;;;;;;;;;;;;;;;;;5039155;28;19932;-82
2023/05/01 11:39:02;;;;;;;;;;;;;;;;;;5034316;28;19936;-82
2023/05/01 11:41:30;;;;;;;;;;;;;;;;;;5039894;28;19967;-83
2023/05/01 11:43:57;;;;;;;;;;;;;;;;;;5039820;28;19939;-83
2023/05/01 11:46:26;;;;;;;;;;;;;;;;;;5031823;28;19933;-82
2023/05/01 11:49:07;;;;;;;;;;;25.30;87.00;;;;;;5050077;28;20001;-82
2023/05/01 11:51:37;;;;;;;;;;;;;;;;;;5069679;28;19925;-82
2023/05/01 11:54:04;;;;;;;;;;;;;;;;;;5031873;28;19932;-83
2023/05/01 11:56:31;;;;;;;;;;;25.40;83.00;;;;;;5058759;28;19933;-82
2023/05/01 11:58:59;;;;;;;;;;;;;;;;;;5039137;28;19983;-83
2023/05/01 12:01:26;;;;;;;;;;;;;;;;;;5033705;28;20024;-83
2023/05/01 12:03:53;;;;;;;;;;;;;;;;;;5058693;28;20359;-82
2023/05/01 12:06:21;;;;;;;;;;;;;;;;;;5050769;28;19950;-83
2023/05/01 12:08:49;;;;;;;;;;;;;;;;;;5021605;28;19944;-83
2023/05/01 12:11:19;;;;;;;;;;;;;;;;;;5025765;28;19983;-82
2023/05/01 12:13:49;;;;;;;;;;;;;;;;;;5056477;28;19978;-82
2023/05/01 12:16:16;;;;;;;;;;;;;;;;;;5056898;28;19935;-83
2023/05/01 12:18:44;;;;;;;;;;;;;;;;;;5039621;28;19924;-83
2023/05/01 12:21:12;;;;;;;;;;;;;;;;;;5035895;28;19956;-82
2023/05/01 12:23:39;;;;;;;;;;;;;;;;;;5051947;28;20027;-83
2023/05/01 12:26:08;;;;;;;;;;;;;;;;;;5045419;28;20451;-83
2023/05/01 12:28:36;;;;;;;;;;;;;;;;;;5035654;28;19925;-82
2023/05/01 12:31:03;;;;;;;;;;;;;;;;;;5030084;28;20398;-81
2023/05/01 12:33:32;;;;;;;;;;;23.90;81.20;;;;;;5038731;28;20019;-82
2023/05/01 12:35:59;;;;;;;;;;;;;;;;;;5035322;28;19928;-83
2023/05/01 12:38:26;;;;;;;;;;;;;;;;;;5031265;28;20700;-82
2023/05/01 12:40:54;;;;;;;;;;;;;;;;;;5051823;28;19952;-82
2023/05/01 12:43:21;;;;;;;;;;;;;;;;;;5036803;28;19935;-82
2023/05/01 12:45:48;;;;;;;;;;;;;;;;;;5037037;28;20386;-83
2023/05/01 12:48:18;;;;;;;;;;;;;;;;;;5054129;28;19940;-83
2023/05/01 12:50:45;;;;;;;;;;;;;;;;;;5038239;28;19929;-82
2023/05/01 12:55:55;;;;;;;;;;;;;;;;;;5496400;22;19941;-82
2023/05/01 12:58:22;;;;;;;;;;;;;;;;;;5029395;28;20027;-84
2023/05/01 13:00:51;;;;;;;;;;;25.00;79.80;;;;;;5028563;28;19941;-82
2023/05/01 13:03:22;;;;;;;;;;;24.90;80.60;;;;;;5029879;28;19932;-82
2023/05/01 13:05:50;;;;;;;;;;;24.90;80.10;;;;;;5044977;28;19933;-83
2023/05/01 13:08:17;;;;;;;;;;;;;;;;;;5029025;28;20416;-80
2023/05/01 13:10:44;;;;;;;;;;;;;;;;;;5028149;28;20307;-83
2023/05/01 13:13:12;;;;;;;;;;;24.60;78.10;;;;;;5028615;28;20345;-81
2023/05/01 13:15:39;;;;;;;;;;;24.50;78.60;;;;;;5029295;28;19929;-82
2023/05/01 13:18:08;;;;;;;;;;;24.50;78.10;;;;;;5048111;28;20489;-84
2023/05/01 13:20:37;;;;;;;;;;;24.30;78.00;;;;;;5051179;28;19976;-81
2023/05/01 13:23:08;;;;;;;;;;;;;;;;;;5033276;28;19935;-80
2023/05/01 13:25:36;;;;;;;;;;;;;;;;;;5048815;28;19975;-82
2023/05/01 13:28:08;;;;;;;;;;;;;;;;;;5050657;28;19944;-83
2023/05/01 13:30:35;;;;;;;;;;;24.50;79.10;;;;;;5050408;28;20352;-82
2023/05/01 13:33:02;;;;;;;;;;;;;;;;;;5030213;28;19939;-82
2023/05/01 13:35:29;;;;;;;;;;;;;;;;;;5035685;28;20547;-82
2023/05/01 13:37:56;;;;;;;;;;;;;;;;;;5053480;28;19933;-81
2023/05/01 13:40:23;;;;;;;;;;;;;;;;;;5050020;28;19939;-82
2023/05/01 13:42:51;;;;;;;;;;;;;;;;;;5039093;28;19987;-82
2023/05/01 13:45:18;;;;;;;;;;;;;;;;;;5049918;28;19937;-82
2023/05/01 13:47:45;;;;;;;;;;;;;;;;;;5030694;28;20070;-81
2023/05/01 13:50:16;;;;;;;;;;;;;;;;;;5051763;28;19935;-82
2023/05/01 13:52:45;;;;;;;;;;;;;;;;;;5052606;28;19928;-81
2023/05/01 13:55:12;;;;;;;;;;;;;;;;;;5048038;28;19925;-81
2023/05/01 13:57:40;;;;;;;;;;;;;;;;;;5049890;28;19983;-81
2023/05/01 14:00:08;;;;;;;;;;;;;;;;;;5053382;28;20300;-81
2023/05/01 14:02:39;;;;;;;;;;;;;;;;;;5055274;28;19913;-83
2023/05/01 14:05:09;;;;;;;;;;;21.00;85.20;;;;;;5038021;28;19940;-82
2023/05/01 14:07:37;;;;;;;;;;;;;;;;;;5037101;28;20474;-77
2023/05/01 14:10:18;;;;;;;;;;;;;;;;;;5046513;28;20545;-78
2023/05/01 14:12:47;;;;;;;;;;;;;;;;;;5048936;28;20851;-78
2023/05/01 14:15:14;;;;;;;;;;;;;;;;;;5031250;28;19941;-79
2023/05/01 14:17:41;;;;;;;;;;;;;;;;;;5044320;28;19925;-79
2023/05/01 14:20:09;;;;;;;;;;;;;;;;;;5028239;28;19936;-79
2023/05/01 14:22:36;;;;;;;;;;;;;;;;;;5023464;28;19926;-78
2023/05/01 14:25:03;;;;;;;;;;;;;;;;;;5044632;28;19935;-79
2023/05/01 14:27:31;;;;;;;;;;;;;;;;;;5050101;28;20627;-79
2023/05/01 14:30:00;;;;;;;;;;;16.40;99.90;;;;;;5034150;28;19988;-79
2023/05/01 14:32:28;;;;;;;;;;;;;;;;;;5053147;28;19913;-81
2023/05/01 14:34:56;;;;;;;;;;;;;;;;;;5054694;28;19924;-79
2023/05/01 14:37:23;;;;;;;;;;;;;;;;;;5055351;28;19929;-78
2023/05/01 14:39:50;;;;;;;;;;;;;;;;;;5038464;28;19928;-79
2023/05/01 14:42:18;;;;;;;;;;;;;;;;;;5051061;28;19929;-79
2023/05/01 14:44:45;;;;;;;;;;;;;;;;;;5057211;28;19931;-78
2023/05/01 14:47:12;;;;;;;;;;;;;;;;;;5050991;28;19920;-77
2023/05/01 14:49:42;;;;;;;;;;;;;;;;;;5049596;28;19925;-79
2023/05/01 14:52:09;;;;;;;;;;;;;;;;;;5047840;28;19970;-80
2023/05/01 14:54:36;;;;;;;;;;;;;;;;;;5030912;28;19946;-79
2023/05/01 14:57:05;;;;;;;;;;;;;;;;;;5043415;28;20000;-79
2023/05/01 14:59:32;;;;;;;;;;;;;;;;;;5030942;28;20462;-80
2023/05/01 15:02:00;;;;;;;;;;;;;;;;;;5056335;28;19979;-79
2023/05/01 15:04:28;;;;;;;;;;;;;;;;;;5038049;28;19968;-83
2023/05/01 15:06:56;;;;;;;;;;;;;;;;;;5036583;28;20012;-82
2023/05/01 15:09:23;;;;;;;;;;;;;;;;;;5055520;28;20003;-80
2023/05/01 15:11:51;;;;;;;;;;;;;;;;;;5056224;28;20115;-81
2023/05/01 15:14:18;;;;;;;;;;;;;;;;;;5059519;28;19928;-81
2023/05/01 15:16:45;;;;;;;;;;;;;;;;;;5059819;28;19929;-82
2023/05/01 15:19:13;;;;;;;;;;;;;;;;;;5059082;28;19912;-83
2023/05/01 15:21:40;;;;;;;;;;;;;;;;;;5039714;28;19925;-81
2023/05/01 15:24:09;;;;;;;;;;;15.20;99.90;;;;;;5055707;28;19963;-82
2023/05/01 15:26:36;;;;;;;;;;;15.30;99.90;;;;;;5049814;28;19948;-83
2023/05/01 15:29:03;;;;;;;;;;;;;;;;;;5049194;28;20031;-78
2023/05/01 15:31:30;;;;;;;;;;;15.50;99.90;;;;;;5053693;28;19959;-78
2023/05/01 15:33:58;;;;;;;;;;;;;;;;;;5042393;28;19929;-78
2023/05/01 15:36:26;;;;;;;;;;;;;;;;;;5065159;28;19928;-78
2023/05/01 15:38:53;;;;;;;;;;;16.00;99.90;;;;;;5057995;28;19929;-79
2023/05/01 15:41:21;;;;;;;;;;;;;;;;;;5070977;28;19924;-79
2023/05/01 15:43:52;;;;;;;;;;;16.00;99.90;;;;;;5054972;28;20635;-78
2023/05/01 15:46:22;;;;;;;;;;;;;;;;;;5055612;28;19929;-79
2023/05/01 15:48:51;;;;;;;;;;;;;;;;;;5046837;28;19929;-79
2023/05/01 15:51:18;;;;;;;;;;;;;;;;;;5051776;28;20140;-77
2023/05/01 15:53:46;;;;;;;;;;;;;;;;;;5046618;28;19992;-79
2023/05/01 15:56:13;;;;;;;;;;;;;;;;;;5045423;28;19939;-78
2023/05/01 15:58:40;;;;;;;;;;;16.00;99.90;;;;;;5041640;28;19975;-78
2023/05/01 16:01:08;;;;;;;;;;;;;;;;;;5025816;28;19925;-78
2023/05/01 16:06:19;;;;;;;;;;;;;;;;;;5243686;22;19916;-79
2023/05/01 16:08:46;;;;;;;;;;;;;;;;;;5049703;28;19940;-79
2023/05/01 16:11:13;;;;;;;;;;;;;;;;;;5045305;28;19929;-78
2023/05/01 16:13:42;;;;;;;;;;;16.40;99.90;;;;;;5045998;28;19963;-78
2023/05/01 16:16:10;;;;;;;;;;;;;;;;;;5048994;28;20646;-79
2023/05/01 16:18:37;;;;;;;;;;;;;;;;;;5048825;28;19933;-79
2023/05/01 16:21:04;;;;;;;;;;;;;;;;;;5045394;28;19933;-79
2023/05/01 16:23:32;;;;;;;;;;;;;;;;;;5026436;28;19925;-78
2023/05/01 16:25:59;;;;;;;;;;;;;;;;;;5049332;28;20020;-79
2023/05/01 16:28:27;;;;;;;;;;;;;;;;;;5025199;28;19943;-78
2023/05/01 16:30:55;;;;;;;;;;;;;;;;;;5026511;28;19939;-78